logo dgac
Viernes 17 de Agosto del 2018

Metar

Buscar por aerodromo o helipuerto
Ingrese nombre de aeródromo, localidad o designador OACI:


METAR del 18-08-2018 a las 02:00 UTC
METAR SAZS 180200Z 27012KT 9000 VCSH SCT010 SCT030 BKN048 01/00 Q1017 RERASN TEMPO 6000 RASN
Viento: dirección 270 grados, velocidad 12 nudos
Visibilidad: 9000 metros
En los alrededores, Chubascos
Nubes: Nubosidad parcial a 1000 pies sobre el nivel del aeródromo
Nubes: Nubosidad parcial a 3000 pies sobre el nivel del aeródromo
Nubes: Nublado a 4800 pies sobre el nivel del aeródromo
Temperatura: 1 °C
Rocío: 0 °C
Humedad_relativa: 93%
Presión: 1017 hPa
Se observó recientemente Agua-Nieve
Se esperan cambios en forma temporal en:
Visibilidad: 6000 metros
Agua-Nieve
METAR del 18-08-2018 a las 02:00 UTC
METAR SAWH 180200Z 23014KT 9999 SCT045 01/M03 Q0993
Viento: dirección 230 grados, velocidad 14 nudos
Visibilidad: 10 km o más
Nubes: Nubosidad parcial a 4500 pies sobre el nivel del aeródromo
Temperatura: 1 °C
Rocío: -3 °C
Humedad_relativa: 75%
Presión: 993 hPa
METAR del 18-08-2018 a las 02:00 UTC
METAR SASA 180200Z 00000KT CAVOK 13/07 Q1019
Visibilidad: 10 km o más,
    sin nubes bajo los 5.000 pies o bajo del MSA (Mínimo de Seguridad del Aeródromo),
    sin cumulonimbus, y sin fenómenos de tiempo significativo en el aeródromo o alrededores
Temperatura: 13 °C
Rocío: 7 °C
Humedad_relativa: 67%
Presión: 1019 hPa
METAR del 18-08-2018 a las 02:00 UTC
METAR SAZN 180200Z 23004KT CAVOK 13/01 Q1016
Viento: dirección 230 grados, velocidad 4 nudos
Visibilidad: 10 km o más,
    sin nubes bajo los 5.000 pies o bajo del MSA (Mínimo de Seguridad del Aeródromo),
    sin cumulonimbus, y sin fenómenos de tiempo significativo en el aeródromo o alrededores
Temperatura: 13 °C
Rocío: 1 °C
Humedad_relativa: 44%
Presión: 1016 hPa
METAR del 18-08-2018 a las 02:00 UTC
METAR SAZM 180200Z 02006KT CAVOK 11/11 Q1016
Viento: dirección 020 grados, velocidad 6 nudos
Visibilidad: 10 km o más,
    sin nubes bajo los 5.000 pies o bajo del MSA (Mínimo de Seguridad del Aeródromo),
    sin cumulonimbus, y sin fenómenos de tiempo significativo en el aeródromo o alrededores
Temperatura: 11 °C
Rocío: 11 °C
Humedad_relativa: 100%
Presión: 1016 hPa
METAR del 18-08-2018 a las 02:00 UTC
METAR SASJ 180200Z 27009KT CAVOK 16/09 Q1018
Viento: dirección 270 grados, velocidad 9 nudos
Visibilidad: 10 km o más,
    sin nubes bajo los 5.000 pies o bajo del MSA (Mínimo de Seguridad del Aeródromo),
    sin cumulonimbus, y sin fenómenos de tiempo significativo en el aeródromo o alrededores
Temperatura: 16 °C
Rocío: 9 °C
Humedad_relativa: 63%
Presión: 1018 hPa
METAR del 18-08-2018 a las 02:00 UTC
METAR SAVC 180200Z 27011KT CAVOK 08/M04 Q1010
Viento: dirección 270 grados, velocidad 11 nudos
Visibilidad: 10 km o más,
    sin nubes bajo los 5.000 pies o bajo del MSA (Mínimo de Seguridad del Aeródromo),
    sin cumulonimbus, y sin fenómenos de tiempo significativo en el aeródromo o alrededores
Temperatura: 8 °C
Rocío: -4 °C
Humedad_relativa: 42%
Presión: 1010 hPa
METAR del 18-08-2018 a las 02:00 UTC
METAR SAWG 180200Z NIL
Nan: NIL
SPECI del 18-08-2018 a las 02:05 UTC
SPECI SCTE 180205Z 33003KT 2100 0650 BR FEW001 SCT004 03/03 Q1023 TEMPO 0800 BCFG BKN005
Viento: dirección 330 grados, velocidad 3 nudos
Visibilidad: 2100 metros
Visibilidad: 650 metros
Neblina
Nubes: Escasa nubosidad a 100 pies sobre el nivel del aeródromo
Nubes: Nubosidad parcial a 400 pies sobre el nivel del aeródromo
Temperatura: 3 °C
Rocío: 3 °C
Humedad_relativa: 100%
Presión: 1023 hPa
Se esperan cambios en forma temporal en:
Visibilidad: 800 metros
Bancos de Niebla
Nubes: Nublado a 500 pies sobre el nivel del aeródromo
METAR del 18-08-2018 a las 02:00 UTC
METAR SLVR 180200Z 33005KT 8000 NSC 21/16 Q1016
Viento: dirección 330 grados, velocidad 5 nudos
Visibilidad: 8000 metros
Sin nubes bajo los 5000 pies o bajo del MSA (Mínimo de Seguridad del Aeródromo)
Temperatura: 21 °C
Rocío: 16 °C
Humedad_relativa: 73%
Presión: 1016 hPa